Date,TemperatureHighF,TemperatureAvgF,TemperatureLowF,DewpointHighF,DewpointAvgF,DewpointLowF,HumidityHigh,HumidityAvg,HumidityLow,PressureMaxIn,PressureMinIn,WindSpeedMaxMPH,WindSpeedAvgMPH,GustSpeedMaxMPH,PrecipitationSumIn
2014-1-1,33.1,26.4,21.6,29.0,23.5,19.0,93,88,84,30.27,30.07,7,4,0,0.00
2014-1-2,21.3,15.7,9.6,20.0,13.3,6.0,93,90,82,30.39,29.99,13,6,0,0.00
2014-1-3,19.1,8.1,-9.5,14.0,4.2,-13.0,90,84,77,30.52,30.14,14,5,0,0.00
2014-1-4,36.4,28.4,17.2,30.0,21.0,12.0,82,74,68,30.14,29.96,24,13,0,0.00
2014-1-5,35.3,27.4,4.6,32.0,26.1,2.0,98,95,82,30.00,29.65,14,5,0,0.03
2014-1-6,4.0,-8.4,-12.4,2.0,-12.3,-16.0,92,83,79,30.42,30.00,15,8,0,0.00
2014-1-7,8.4,-4.5,-11.7,3.0,-9.4,-16.0,92,80,75,30.48,30.38,16,9,0,0.00
2014-1-8,19.7,17.2,13.1,16.0,10.3,-99.9,88,82,82,30.52,0.00,9,-13,0,0.00
2014-1-9,31.8,22.1,12.4,31.0,19.7,10.0,97,90,85,30.52,30.22,11,4,0,0.01
2014-1-10,41.2,36.8,31.9,41.0,35.9,31.0,99,96,94,30.21,29.58,17,7,0,0.42
2014-1-11,43.0,37.4,32.3,43.0,36.5,30.0,100,96,88,29.80,29.45,16,8,0,0.03
2014-1-12,45.5,35.8,30.1,37.0,31.6,28.0,95,85,67,29.99,29.74,22,8,0,0.00
2014-1-13,52.1,44.6,31.9,45.0,37.7,29.0,90,77,66,29.78,29.59,25,12,0,0.00
2014-1-14,40.2,31.3,25.9,34.0,27.4,20.0,96,86,69,29.92,29.70,20,7,0,0.03
2014-1-15,27.5,22.1,18.5,21.0,16.5,14.0,86,79,71,30.10,29.92,13,7,0,0.00
2014-1-16,32.5,26.6,18.2,31.0,23.5,14.0,95,88,78,30.01,29.62,23,12,0,0.00
2014-1-17,30.9,16.8,11.0,29.0,13.3,7.0,93,86,76,30.05,29.70,17,7,0,0.00
2014-1-18,24.4,18.0,8.5,23.0,15.7,6.0,94,90,81,30.05,29.75,12,5,0,0.00
2014-1-19,37.8,25.0,13.3,29.0,21.1,11.0,94,85,71,29.97,29.65,24,12,0,0.00
2014-1-20,39.0,34.7,29.9,32.0,29.9,28.0,92,83,69,29.92,29.64,20,5,0,0.00
2014-1-21,29.2,12.9,2.1,27.0,7.8,-1.0,94,81,57,30.26,29.88,19,7,0,0.00
2014-1-22,18.6,7.6,-2.6,17.0,3.9,-6.0,92,84,75,30.25,29.98,17,7,0,0.00
2014-1-23,7.9,2.1,-2.6,4.0,-3.2,-9.0,96,78,71,30.67,30.17,15,7,0,0.00
2014-1-24,23.7,9.2,-4.9,17.0,2.4,-9.0,84,74,63,30.67,29.77,27,15,0,0.00
2014-1-25,31.7,25.6,22.0,29.0,23.3,18.0,95,91,78,29.75,29.52,24,16,0,0.00
2014-1-27,7.0,2.5,-3.4,1.0,-8.0,-99.9,77,69,66,30.48,0.00,16,-9,0,0.00
2014-1-28,11.5,2.4,-5.5,1.0,-4.5,-11.0,81,73,59,30.52,30.36,15,4,0,0.00
2014-1-29,26.7,14.9,5.2,14.0,6.1,0.0,80,69,51,30.36,30.18,18,8,0,0.00
2014-1-30,34.2,26.7,17.9,20.0,13.8,9.0,69,59,50,30.18,29.79,25,14,0,0.00
2014-1-31,33.3,27.1,23.5,27.0,22.8,19.0,95,84,57,30.14,29.94,11,3,0,0.02
2014-2-1,40.6,34.3,28.9,40.0,33.7,28.0,99,97,94,30.06,29.78,10,3,0,0.63
2014-2-2,31.1,24.8,18.1,31.0,21.9,15.0,98,88,79,30.30,30.00,7,4,0,0.00
2014-2-3,25.1,16.7,9.3,18.0,13.1,7.0,92,86,74,30.41,30.26,5,2,0,0.01
2014-2-4,22.9,19.1,13.5,19.0,16.2,12.0,94,88,76,30.41,29.96,12,5,0,0.00
2014-2-5,26.9,22.2,18.3,24.0,20.3,16.0,94,92,89,30.44,29.87,13,6,0,0.00
2014-2-6,18.7,4.5,-5.5,17.0,0.6,-9.0,92,84,77,30.53,30.44,12,6,0,0.00
2014-2-7,11.6,0.3,-10.0,5.0,-4.4,-13.0,87,81,69,30.53,30.42,13,3,0,0.00
2014-2-8,22.2,14.5,-0.6,21.0,11.5,-5.0,93,87,83,30.43,30.16,9,2,0,0.00
2014-2-9,22.2,17.7,8.0,21.0,14.1,5.0,93,86,72,30.31,30.12,11,4,0,0.00
2014-2-10,8.1,0.4,-9.5,6.0,-4.1,-13.0,89,81,72,30.51,30.30,8,3,0,0.00
2014-2-11,14.9,-1.3,-17.5,7.0,-5.7,-21.0,91,81,69,30.59,30.46,6,1,0,0.00
2014-2-12,26.2,9.8,-6.1,15.0,4.1,-10.0,89,78,62,30.45,30.05,5,1,0,0.00
2014-2-13,34.2,22.3,-2.4,29.0,14.3,-5.0,90,72,53,30.05,29.63,17,5,0,0.01
2014-2-14,33.5,18.2,11.3,29.0,14.5,7.0,90,85,77,29.94,29.63,14,4,0,0.00
2014-2-15,20.9,12.2,-4.9,19.0,7.9,-8.0,93,83,72,30.17,29.94,11,4,0,0.01
2014-2-16,25.6,22.0,12.7,22.0,18.3,10.0,93,85,75,30.31,29.97,11,4,0,0.00
2014-2-17,35.7,26.1,12.8,33.0,23.3,11.0,96,89,82,30.31,29.71,22,8,0,0.00
2014-2-18,44.9,37.7,26.6,36.0,30.6,24.0,91,76,61,30.04,29.70,16,8,0,0.17
2014-2-19,46.4,37.6,33.3,39.0,33.1,30.0,91,83,75,30.03,29.68,16,5,0,0.00
2014-2-20,59.6,44.3,33.8,57.0,41.8,31.0,98,90,80,29.96,29.33,27,10,0,0.62
2014-2-21,41.5,36.9,33.4,33.0,29.8,27.0,86,76,60,29.88,29.55,28,14,0,0.00
2014-2-22,44.0,37.4,30.7,34.0,30.6,27.0,96,77,59,30.04,29.84,19,4,0,0.05
2014-2-23,32.4,28.8,25.4,31.0,27.7,24.0,96,96,94,30.10,30.04,7,2,0,0.00
2014-2-24,26.5,23.3,17.6,18.0,15.9,12.0,80,73,64,30.32,30.23,11,4,0,0.00
2014-2-25,24.6,21.7,13.6,19.0,15.6,6.0,86,77,64,30.26,30.16,14,6,0,0.00
2014-2-26,18.6,12.3,5.0,11.0,4.9,0.0,80,72,60,30.28,29.84,17,8,0,0.00
2014-2-27,21.3,14.8,8.5,14.0,3.0,-2.0,74,60,44,30.21,29.77,23,8,0,0.00
2014-2-28,37.1,22.0,7.7,21.0,11.1,1.0,82,65,40,30.25,30.04,14,5,0,0.00
2014-3-1,41.8,31.9,22.1,30.0,23.3,19.0,92,72,57,30.25,30.04,11,5,0,0.00
2014-3-2,22.1,17.6,11.7,20.0,14.0,8.0,92,86,79,30.36,30.22,12,7,0,0.00
2014-3-3,17.3,11.2,6.1,8.0,2.6,-1.0,85,69,53,30.50,30.33,11,4,0,0.00
2014-3-4,31.4,19.8,9.6,19.0,11.2,4.0,77,70,57,30.43,30.20,8,3,0,0.01
2014-3-5,29.3,22.7,17.5,21.0,15.8,12.0,88,75,60,30.39,30.23,15,6,0,0.00
2014-3-6,37.9,26.6,18.0,29.0,20.4,13.0,89,78,67,30.39,30.12,9,4,0,0.00
2014-3-7,53.7,37.9,23.4,37.0,30.1,22.0,94,76,47,30.11,29.91,11,3,0,0.00
2014-3-8,41.5,34.3,25.8,37.0,30.9,22.0,93,87,81,30.25,29.94,10,4,0,0.00
2014-3-9,43.9,32.7,21.4,34.0,27.5,20.0,94,82,67,30.29,29.95,16,6,0,0.00
2014-3-10,58.6,46.9,38.2,46.0,39.3,33.0,87,75,62,29.95,29.68,20,9,0,0.00
2014-3-11,66.4,49.6,36.4,51.0,43.3,35.0,97,81,51,29.69,29.55,11,3,0,0.00
2014-3-12,44.6,30.9,19.8,37.0,28.5,16.0,100,91,76,30.10,29.37,17,9,0,0.93
2014-3-13,37.4,27.2,15.8,31.0,22.1,13.0,91,81,72,30.21,29.99,15,6,0,0.01
2014-3-14,57.5,44.4,37.4,43.0,35.4,30.0,80,72,52,29.99,29.70,30,15,0,0.00
2014-3-16,29.0,26.1,22.6,19.0,13.1,-99.9,69,61,50,30.21,30.10,17,-9,0,0.00
2014-3-17,37.3,25.8,16.8,29.0,19.1,9.0,87,76,63,30.07,29.85,10,4,0,0.00
2014-3-18,52.5,39.4,27.8,43.0,34.1,26.0,92,82,67,29.92,29.67,15,4,0,0.00
2014-3-19,49.8,44.0,36.0,47.0,40.7,30.0,94,88,77,30.03,29.63,24,11,0,0.05
2014-3-20,53.2,40.9,30.6,38.0,32.6,27.0,90,73,52,30.09,29.98,15,6,0,0.00
2014-3-21,66.1,50.6,35.6,46.0,38.8,33.0,91,67,42,30.02,29.71,15,6,0,0.00
2014-3-22,51.8,40.9,34.9,42.0,33.5,30.0,88,75,63,30.23,29.79,11,4,0,0.00
2014-3-23,36.0,30.4,24.8,30.0,21.7,18.0,86,71,53,30.37,30.23,11,4,0,0.00
2014-3-24,36.8,28.5,21.3,21.0,18.9,16.0,92,69,48,30.37,30.14,10,2,0,0.00
2014-3-25,32.7,28.5,26.1,27.0,20.4,14.0,94,73,53,30.24,30.00,18,5,0,0.00
2014-3-26,41.5,29.4,17.7,21.0,17.0,14.0,92,62,38,30.37,30.14,12,4,0,0.00
2014-3-27,52.5,41.8,34.3,46.0,33.3,19.0,88,73,48,30.14,29.63,23,11,0,0.20
2014-3-28,52.8,44.7,39.4,49.0,40.9,35.0,94,86,74,30.12,29.58,31,10,0,0.15
2014-3-29,40.3,36.1,33.1,37.0,33.3,30.0,100,90,82,30.22,30.07,14,5,0,0.23
2014-3-30,55.7,39.6,25.6,39.0,32.0,24.0,95,77,44,30.27,30.10,7,2,0,0.01
2014-3-31,68.0,51.9,35.8,42.0,36.3,32.0,86,59,31,30.11,29.79,18,6,0,0.00
2014-4-1,59.7,51.4,43.3,46.0,38.2,30.0,80,61,47,30.06,29.75,24,11,0,0.00
2014-4-2,53.1,48.0,42.0,49.0,42.7,35.0,92,82,62,30.11,29.97,12,3,0,0.15
2014-4-3,51.3,47.5,43.0,50.0,46.7,43.0,98,97,91,29.98,29.61,20,7,0,1.64
2014-4-4,56.2,45.6,37.4,55.0,42.4,31.0,99,89,76,29.99,29.47,27,11,0,0.13
2014-4-5,51.2,42.3,36.1,35.0,32.1,30.0,81,68,47,30.20,30.00,13,3,0,0.00
2014-4-6,55.9,45.0,32.8,40.0,35.2,30.0,89,70,49,30.17,29.92,8,3,0,0.00
2014-4-7,49.3,44.3,41.4,43.0,39.1,35.0,95,82,63,29.92,29.51,10,4,0,0.66
2014-4-8,56.0,46.9,38.0,48.0,42.6,37.0,97,85,65,29.88,29.64,9,2,0,0.00
2014-4-9,60.8,48.6,34.7,46.0,39.5,33.0,97,74,45,30.04,29.88,14,3,0,0.00
2014-4-10,70.8,58.2,45.8,52.0,45.7,39.0,89,64,48,29.95,29.75,32,11,0,0.01
2014-4-11,68.6,56.5,46.1,50.0,41.8,32.0,92,63,26,30.03,29.89,12,2,0,0.06
2014-4-12,76.7,61.8,43.9,59.0,49.0,36.0,78,64,49,30.04,29.74,29,10,0,0.00
2014-4-13,72.2,67.3,61.9,61.0,58.6,55.0,82,74,65,29.77,29.54,24,13,0,0.00
2014-4-14,66.2,48.7,33.1,61.0,45.9,31.0,95,90,82,29.91,29.40,30,10,0,0.14
2014-4-15,37.6,33.3,29.4,31.0,25.4,19.0,93,74,49,30.24,29.91,10,4,0,0.02
2014-4-16,51.5,39.2,28.1,31.0,27.2,24.0,84,64,41,30.36,30.18,18,6,0,0.00
2014-4-17,66.4,51.5,36.1,43.0,36.1,29.0,78,58,39,30.24,30.18,15,6,0,0.00
2014-4-18,68.1,56.6,45.8,47.0,42.6,38.0,86,62,37,30.28,30.19,10,3,0,0.00
2014-4-19,68.0,53.2,38.0,47.0,39.5,30.0,79,62,38,30.32,30.20,14,5,0,0.00
2014-4-20,77.3,59.9,41.1,47.0,40.1,35.0,79,52,26,30.23,30.05,6,2,0,0.00
2014-4-21,74.5,61.4,49.0,58.0,50.0,43.0,93,68,45,30.04,29.80,17,5,0,0.01
2014-4-22,60.0,54.5,45.4,57.0,43.8,35.0,97,69,44,29.99,29.75,16,6,0,0.03
2014-4-23,59.6,47.9,34.3,39.0,33.3,30.0,83,59,35,30.13,29.99,10,3,0,0.00
2014-4-24,67.2,58.0,49.8,47.0,40.9,37.0,73,54,40,30.03,29.63,17,5,0,0.00
2014-4-25,70.4,59.7,52.5,54.0,46.9,38.0,98,67,31,29.83,29.56,16,5,0,0.23
2014-4-26,71.1,61.0,50.5,51.0,45.7,36.0,83,59,41,29.91,29.81,13,4,0,0.00
2014-4-27,72.4,58.9,45.3,50.0,43.8,37.0,76,59,44,29.98,29.75,20,9,0,0.00
2014-4-28,72.3,58.1,49.0,62.0,52.4,42.0,95,82,62,29.77,29.48,20,9,0,0.29
2014-4-29,74.0,60.1,50.4,57.0,50.9,42.0,98,75,35,29.68,29.46,35,9,0,0.04
2014-4-30,58.7,51.8,43.3,50.0,45.8,39.0,93,80,65,29.86,29.67,14,6,0,0.00
2014-5-1,50.0,46.8,43.4,44.0,41.3,39.0,93,81,69,29.88,29.78,22,11,0,0.00
2014-5-2,54.5,49.0,44.8,46.0,44.2,43.0,94,84,66,29.89,29.82,19,9,0,0.00
2014-5-3,69.4,57.8,47.3,48.0,40.8,33.0,86,58,29,29.88,29.73,18,9,0,0.00
2014-5-4,64.1,57.1,50.1,46.0,38.2,25.0,78,51,32,30.03,29.86,10,5,0,0.00
2014-5-5,69.9,57.7,46.1,49.0,40.4,29.0,69,53,45,30.01,29.79,13,5,0,0.00
2014-5-6,75.1,61.2,48.0,51.0,44.3,39.0,75,56,39,29.93,29.78,15,6,0,0.00
2014-5-7,86.8,71.9,57.0,65.0,56.3,46.0,78,59,44,29.84,29.76,23,7,0,0.00
2014-5-8,87.9,77.5,67.5,66.0,62.1,58.0,78,60,43,29.90,29.81,26,11,0,0.00
2014-5-9,79.7,69.0,60.2,66.0,62.4,56.0,96,81,50,29.84,29.70,24,10,0,0.76
2014-5-10,74.8,64.5,53.2,58.0,50.2,41.0,94,64,30,29.95,29.82,9,2,0,0.00
2014-5-11,82.9,69.4,56.7,71.0,61.6,47.0,96,77,60,30.03,29.84,18,6,0,0.22
2014-5-12,81.0,72.6,63.0,74.0,68.3,61.0,97,87,74,29.98,29.84,24,9,0,1.09
2014-5-13,74.8,66.9,54.3,71.0,64.4,51.0,96,91,87,30.10,29.85,13,6,0,0.70
2014-5-14,53.9,51.7,47.4,53.0,50.7,46.0,97,96,89,30.12,29.83,12,4,0,0.66
2014-5-15,53.4,47.7,44.9,48.0,44.9,43.0,98,90,73,30.04,29.78,14,4,0,0.11
2014-5-16,50.8,46.3,42.9,48.0,43.8,40.0,97,91,83,30.08,29.94,10,2,0,0.75
2014-5-17,56.3,48.1,41.4,45.0,41.5,39.0,97,79,54,30.22,30.06,11,3,0,0.00
2014-5-18,66.2,53.3,39.0,48.0,41.5,37.0,94,68,40,30.30,30.20,5,1,0,0.00
2014-5-19,71.3,59.1,45.1,50.0,46.1,41.0,86,65,43,30.25,29.97,12,3,0,0.00
2014-5-20,81.6,70.0,59.8,68.0,60.8,50.0,83,73,62,30.04,29.84,17,7,0,0.00
2014-5-21,86.4,74.5,67.7,72.0,67.0,63.0,90,78,59,29.87,29.78,13,7,0,0.00
2014-5-22,74.1,67.6,59.6,64.0,56.1,52.0,96,68,46,30.06,29.84,9,2,0,0.00
2014-5-23,73.9,63.5,50.9,55.0,51.4,48.0,96,67,43,30.14,30.05,10,2,0,0.00
2014-5-24,77.6,64.4,48.0,56.0,49.9,45.0,92,63,35,30.19,30.08,7,1,0,0.00
2014-5-25,82.3,70.9,57.0,59.0,54.3,50.0,88,59,34,30.12,30.00,10,2,0,0.00
2014-5-26,87.1,75.0,60.7,68.0,63.2,57.0,89,69,50,30.05,29.90,16,5,0,0.00
2014-5-27,87.8,77.9,68.7,67.0,64.5,60.0,88,66,42,29.96,29.84,21,6,0,0.00
2014-5-28,84.9,73.7,66.3,71.0,66.2,64.0,92,78,50,29.95,29.87,12,3,0,0.00
2014-5-29,83.0,73.7,65.4,71.0,67.8,64.0,98,83,61,30.02,29.93,8,2,0,0.00
2014-5-30,84.0,74.6,63.5,67.0,56.5,50.0,83,56,35,30.11,30.02,13,3,0,0.00
2014-5-31,86.6,76.0,63.0,60.0,55.8,53.0,77,52,32,30.14,30.01,9,2,0,0.00
2014-6-1,89.0,74.6,60.4,69.0,61.6,54.0,86,65,45,30.06,29.91,15,4,0,0.00
2014-6-2,79.7,73.6,69.5,71.0,69.2,67.0,96,86,70,29.97,29.84,24,12,0,0.75
2014-6-3,85.5,76.0,68.0,71.0,64.6,53.0,98,72,33,29.93,29.84,11,6,0,0.00
2014-6-4,75.0,66.5,62.0,71.0,63.4,58.0,99,89,76,29.85,29.66,15,3,0,0.61
2014-6-5,76.2,65.8,55.9,62.0,57.3,54.0,99,76,48,29.94,29.82,5,1,0,0.01
2014-6-6,80.9,69.8,55.7,60.0,56.5,53.0,94,65,41,29.97,29.89,5,1,0,0.00
2014-6-7,81.7,71.8,58.8,62.0,57.3,54.0,86,62,40,29.98,29.70,11,3,0,0.01
2014-6-8,75.6,66.8,60.0,66.0,61.4,57.0,98,83,67,29.96,29.61,12,4,0,0.82
2014-6-9,78.6,67.7,56.4,67.0,58.9,55.0,96,76,49,29.96,29.84,7,2,0,0.00
2014-6-10,72.1,67.5,63.6,68.0,64.5,61.0,98,90,78,29.85,29.65,9,3,0,0.62
2014-6-11,78.2,69.9,65.6,69.0,66.3,63.0,99,89,70,29.71,29.64,16,4,0,0.05
2014-6-12,80.1,70.8,63.4,70.0,65.2,61.0,95,83,67,29.81,29.71,9,4,0,0.00
2014-6-13,73.3,66.4,59.4,62.0,53.2,45.0,88,65,38,30.01,29.81,7,3,0,0.00
2014-6-14,76.9,65.3,50.2,53.0,48.9,44.0,83,58,35,30.11,29.97,9,1,0,0.00
2014-6-15,83.6,71.2,55.7,70.0,61.0,51.0,87,71,54,30.00,29.85,17,5,0,0.00
2014-6-16,85.7,78.4,71.9,75.0,71.8,69.0,95,81,66,30.06,29.92,12,4,0,0.01
2014-6-17,89.7,81.3,72.8,76.0,72.1,69.0,87,74,58,29.96,29.85,21,8,0,0.00
2014-6-18,88.7,77.0,68.4,76.0,71.2,66.0,93,83,61,29.99,29.86,14,5,0,0.52
2014-6-19,87.1,74.9,67.9,79.0,71.9,66.0,99,90,72,30.02,29.92,10,2,0,0.03
2014-6-20,85.2,75.8,69.6,76.0,71.4,68.0,99,87,68,29.98,29.85,6,2,0,0.05
2014-6-21,86.5,74.8,66.6,73.0,68.7,66.0,99,83,52,29.95,29.83,6,1,0,0.02
2014-6-22,86.0,75.9,66.4,74.0,69.6,66.0,99,82,57,29.87,29.78,10,2,0,0.01
2014-6-23,86.7,76.2,69.5,76.0,70.9,65.0,97,84,64,29.84,29.77,13,3,0,0.00
2014-6-24,77.0,73.0,69.9,73.0,71.2,69.0,99,94,83,29.85,29.80,6,1,0,0.26
2014-6-25,84.5,74.8,67.0,74.0,69.5,67.0,100,85,59,29.96,29.83,9,1,0,0.01
2014-6-26,85.0,73.7,64.0,73.0,68.2,64.0,100,84,58,30.02,29.92,6,1,0,0.00
2014-6-27,87.1,77.2,66.3,73.0,69.8,65.0,96,79,59,30.00,29.93,7,2,0,0.00
2014-6-28,84.3,75.9,69.8,75.0,71.4,68.0,96,86,70,30.03,29.93,8,2,0,0.00
2014-6-29,83.3,77.0,71.9,75.0,72.2,70.0,93,85,74,29.99,29.90,13,6,0,0.00
2014-6-30,84.7,75.5,69.5,79.0,72.7,67.0,98,91,81,29.95,29.68,18,4,0,0.08
2014-7-1,83.4,74.5,65.9,77.0,68.8,65.0,99,84,59,29.85,29.63,12,4,0,0.53
2014-7-2,74.3,68.9,61.1,67.0,63.7,59.0,95,84,68,29.97,29.77,9,3,0,0.00
2014-7-3,73.6,65.3,57.6,61.0,58.4,56.0,98,80,57,30.15,29.96,7,2,0,0.03
2014-7-4,74.3,59.9,50.0,61.0,54.9,50.0,99,85,53,30.27,30.15,3,0,0,0.00
2014-7-7,84.5,76.0,71.6,79.0,71.4,-99.9,98,89,79,29.76,29.69,11,-10,0,0.00
2014-7-8,80.6,73.6,68.5,72.0,68.7,64.0,99,86,63,29.81,29.59,15,5,0,0.56
2014-7-9,78.3,70.5,61.7,67.0,62.8,59.0,97,78,54,29.98,29.82,10,2,0,0.00
2014-7-10,77.9,69.0,59.5,62.0,58.8,55.0,95,72,46,30.13,29.98,6,1,0,0.00
2014-7-11,81.9,69.4,53.8,67.0,60.6,53.0,99,76,50,30.18,30.08,5,1,0,0.00
2014-7-12,77.4,72.0,67.0,74.0,69.0,63.0,99,90,80,30.12,29.90,12,4,0,0.30
2014-7-13,82.7,77.0,69.7,75.0,72.7,68.0,98,87,68,29.90,29.84,13,4,0,0.15
2014-7-14,80.6,69.6,64.8,71.0,66.8,64.0,99,92,64,29.86,29.83,5,0,0,0.00
2014-7-15,69.3,61.3,54.6,57.0,54.1,53.0,94,75,63,29.93,0.00,9,3,0,0.00
2014-7-16,72.1,62.2,52.3,60.0,55.8,52.0,99,81,55,30.01,29.93,6,1,0,0.00
2014-7-17,76.2,63.8,51.1,62.0,56.8,50.0,99,80,55,30.11,30.01,4,0,0,0.00
2014-7-18,76.6,66.2,55.2,62.0,57.7,53.0,94,76,54,30.15,30.05,5,1,0,0.00
2014-7-19,76.3,66.1,51.7,66.0,60.4,51.0,99,83,65,30.06,29.97,6,1,0,0.00
2014-7-20,81.0,69.4,56.3,68.0,63.1,56.0,100,82,56,30.04,29.97,5,0,0,0.00
2014-7-21,84.5,72.0,59.6,71.0,65.4,59.0,100,82,58,30.09,30.00,5,0,0,0.00
2014-7-22,85.4,75.2,63.2,75.0,69.7,63.0,99,84,67,30.05,29.93,11,3,0,0.01
2014-7-23,77.0,70.8,60.5,72.0,65.9,53.0,99,85,62,30.04,29.91,10,3,0,0.18
2014-7-24,75.9,65.0,55.6,64.0,57.8,53.0,98,79,53,30.08,30.01,7,2,0,0.00
2014-7-25,73.3,59.8,51.0,64.0,57.1,50.0,99,91,64,30.08,29.93,5,1,0,0.00
2014-7-26,80.4,72.1,66.1,76.0,68.6,62.0,99,89,84,29.94,29.75,11,2,0,0.65
2014-7-27,83.5,72.8,65.0,76.0,68.0,61.0,100,86,57,29.82,29.65,17,4,0,0.07
2014-7-28,69.8,64.7,56.5,62.0,57.2,49.0,91,77,56,30.04,29.79,13,4,0,0.00
2014-7-29,76.4,62.8,52.2,64.0,57.9,51.0,98,85,61,30.04,29.98,12,2,0,0.35
2014-7-30,78.5,68.0,58.8,68.0,62.5,58.0,99,84,60,30.02,29.96,9,2,0,0.01
2014-7-31,79.6,69.4,57.9,68.0,63.3,57.0,99,82,59,30.04,29.99,7,1,0,0.00
2014-8-1,81.5,66.8,58.1,70.0,62.4,57.0,99,86,60,30.07,30.02,8,0,0,0.04
2014-8-2,81.1,70.4,60.0,68.0,63.8,60.0,99,81,59,30.10,30.03,5,1,0,0.00
2014-8-3,84.2,71.8,55.8,69.0,64.2,55.0,100,80,53,30.13,30.03,5,1,0,0.00
2014-8-4,84.5,72.8,60.4,71.0,66.0,60.0,98,81,54,30.09,29.99,5,1,0,0.00
2014-8-5,80.0,71.5,65.5,71.0,66.9,64.0,96,86,66,30.02,29.95,6,0,0,0.00
2014-8-6,79.4,69.9,61.2,71.0,66.5,61.0,100,89,70,30.02,29.95,5,1,0,0.00
2014-8-7,79.8,71.1,62.6,65.0,62.4,59.0,94,75,52,30.05,29.96,7,2,0,0.00
2014-8-8,80.3,71.4,65.5,67.0,63.0,60.0,93,75,56,30.01,29.94,6,2,0,0.00
2014-8-9,81.4,72.3,64.6,69.0,64.1,60.0,87,76,64,30.00,29.93,9,3,0,0.00
2014-8-10,79.5,72.0,67.2,76.0,68.7,61.0,98,90,71,29.96,29.86,6,1,0,0.26
2014-8-11,77.1,72.5,69.0,74.0,71.5,69.0,100,96,86,29.88,29.75,6,1,0,0.20
2014-8-12,69.7,64.2,61.0,69.0,62.4,59.0,99,93,82,29.95,29.73,10,3,0,0.02
2014-8-13,78.6,67.7,57.0,66.0,60.9,57.0,98,81,53,30.03,29.94,7,2,0,0.00
2014-8-14,77.0,68.6,57.3,65.0,60.7,51.0,98,77,58,30.02,29.96,8,2,0,0.00
2014-8-15,76.2,60.6,45.4,62.0,52.1,45.0,98,77,39,30.08,29.96,5,0,0,0.00
2014-8-16,75.0,66.1,56.9,72.0,64.5,55.0,99,94,90,29.97,29.89,8,1,0,0.35
2014-8-17,78.1,71.0,65.8,72.0,68.1,64.0,96,90,79,29.92,29.83,6,1,0,0.03
2014-8-18,82.2,72.4,66.2,73.0,69.1,66.0,100,90,69,29.86,29.75,4,1,0,0.00
2014-8-19,82.6,72.4,64.5,75.0,70.0,64.0,100,92,76,29.79,29.69,13,2,0,0.11
2014-8-20,81.0,70.6,64.9,73.0,68.3,65.0,100,93,73,29.93,29.75,8,1,0,0.01
2014-8-21,86.1,77.0,69.4,80.0,74.0,69.0,100,91,78,29.97,29.85,11,3,0,0.25
2014-8-22,84.8,76.2,71.5,77.0,73.6,71.0,99,90,74,29.95,29.82,7,2,0,0.10
2014-8-23,88.4,75.6,69.5,79.0,73.0,69.0,100,92,72,29.94,29.85,13,1,0,0.23
2014-8-24,89.0,77.9,69.8,79.0,74.3,70.0,100,89,67,29.97,29.91,4,1,0,0.23
2014-8-25,90.8,79.4,70.6,80.0,75.2,70.0,100,88,64,30.01,29.95,8,1,0,0.00